Lolo, Montana
Current Conditions -  °F | °C
As of 11:53 AM on Thursday 23 Oct 2014 (Local Time) from KMSO Reporting Station
Scattered Clouds Scattered Clouds  
Wind Chill: 56°   Ceiling: Unl
Heat Index: 56°   Visibility: 10mi
Dew Point: 44°   Wind: 9mph
Humidity: 64%   Direction: 140°SE
Pressure: 29.89"   Gusts: NA
Location:  46.75°N, 114.09°W
Report Text: KMSO 231753Z 14008KT 10SM SCT080 13/07 A2989 RMK AO2 SLP121 60000 T01330067 10133 20083 56005
Loading
Personal Weather Stations






























Interactive Weather Map
Tropical Storm Tracking
New forecast layout! Learn more

10-Day Weather Forecast

Advertisements
Track Severe Weather on mobile